createdAt,value
2019-03-05T00:02:23.919Z,3.67
2019-03-05T00:04:54.459Z,3.30
2019-03-05T00:07:25.263Z,4.50
2019-03-05T00:09:55.648Z,3.80
2019-03-05T00:12:26.247Z,3.30
2019-03-05T00:14:56.873Z,2.97
2019-03-05T00:17:27.238Z,3.93
2019-03-05T00:19:57.946Z,3.10
2019-03-05T00:22:28.737Z,3.83
2019-03-05T00:25:08.022Z,3.50
2019-03-05T00:27:53.148Z,3.40
2019-03-05T00:30:36.373Z,2.97
2019-03-05T00:33:15.534Z,3.43
2019-03-05T00:36:04.606Z,3.47
2019-03-05T00:39:02.005Z,2.60
2019-03-05T00:41:58.402Z,2.70
2019-03-05T00:45:05.461Z,3.27
2019-03-05T00:48:07.694Z,3.20
2019-03-05T00:51:24.978Z,2.87
2019-03-05T00:54:53.077Z,3.17
2019-03-05T00:58:02.014Z,3.10
2019-03-05T01:00:43.015Z,2.60
2019-03-05T01:03:34.974Z,2.83
2019-03-05T01:06:23.979Z,3.17
2019-03-05T01:08:56.287Z,3.20
2019-03-05T01:11:28.576Z,3.40
2019-03-05T01:13:59.713Z,2.50
2019-03-05T01:16:34.920Z,2.73
2019-03-05T01:19:05.553Z,3.30
2019-03-05T01:21:36.828Z,3.20
2019-03-05T01:24:09.568Z,3.60
2019-03-05T01:26:41.053Z,3.73
2019-03-05T01:29:11.516Z,3.47
2019-03-05T01:31:59.556Z,4.10
2019-03-05T01:34:47.451Z,3.57
2019-03-05T01:37:19.461Z,3.67
2019-03-05T01:40:17.669Z,3.27
2019-03-05T01:42:49.083Z,3.60
2019-03-05T01:45:20.442Z,3.80
2019-03-05T01:47:53.598Z,3.47
2019-03-05T01:50:24.095Z,3.20
2019-03-05T01:52:55.294Z,3.13
2019-03-05T01:55:26.483Z,2.93
2019-03-05T01:57:56.929Z,3.07
2019-03-05T02:00:30.521Z,3.40
2019-03-05T02:03:01.235Z,3.40
2019-03-05T02:05:32.590Z,3.47
2019-03-05T02:08:03.175Z,3.13
2019-03-05T02:10:33.822Z,3.43
2019-03-05T02:13:05.027Z,3.10
2019-03-05T02:15:35.672Z,2.83
2019-03-05T02:18:06.101Z,2.73
2019-03-05T02:20:37.212Z,3.30
2019-03-05T02:23:42.789Z,3.50
2019-03-05T02:26:58.412Z,3.10
2019-03-05T02:29:58.202Z,3.50
2019-03-05T02:33:22.151Z,2.87
2019-03-05T02:36:30.758Z,2.97
2019-03-05T02:39:47.222Z,2.97
2019-03-05T02:42:57.108Z,3.30
2019-03-05T02:46:23.056Z,2.97
2019-03-05T02:49:23.379Z,2.60
2019-03-05T02:52:15.332Z,2.80
2019-03-05T02:55:24.210Z,2.67
2019-03-05T02:57:58.018Z,2.90
2019-03-05T03:00:41.643Z,2.70
2019-03-05T03:03:35.157Z,1.97
2019-03-05T03:06:15.290Z,2.97
2019-03-05T03:08:46.750Z,2.50
2019-03-05T03:11:17.653Z,3.03
2019-03-05T03:13:51.089Z,2.80
2019-03-05T03:16:24.335Z,2.83
2019-03-05T03:18:57.934Z,2.40
2019-03-05T03:21:28.816Z,2.63
2019-03-05T03:23:59.682Z,2.77
2019-03-05T03:26:30.540Z,2.37
2019-03-05T03:29:07.989Z,2.50
2019-03-05T03:31:41.630Z,3.07
2019-03-05T03:34:13.456Z,2.80
2019-03-05T03:36:45.328Z,2.70
2019-03-05T03:39:16.774Z,2.60
2019-03-05T03:41:47.413Z,3.00
2019-03-05T03:44:18.163Z,2.30
2019-03-05T03:46:49.516Z,2.63
2019-03-05T03:49:20.927Z,2.20
2019-03-05T03:51:53.043Z,2.30
2019-03-05T03:54:24.863Z,3.00
2019-03-05T03:56:56.008Z,2.53
2019-03-05T03:59:30.604Z,2.03
2019-03-05T04:02:01.522Z,2.67
2019-03-05T04:04:32.373Z,2.47
2019-03-05T04:07:02.938Z,1.97
2019-03-05T04:09:37.059Z,2.23
2019-03-05T04:12:07.890Z,2.40
2019-03-05T04:14:38.400Z,2.40
2019-03-05T04:17:12.495Z,2.30
2019-03-05T04:19:43.129Z,2.50
2019-03-05T04:22:14.398Z,2.77
2019-03-05T04:24:45.450Z,2.47
2019-03-05T04:27:15.945Z,2.30
2019-03-05T04:29:47.256Z,2.40
2019-03-05T04:32:18.401Z,2.30
2019-03-05T04:34:49.231Z,2.20
2019-03-05T04:37:19.803Z,2.67
2019-03-05T04:39:51.289Z,2.70
2019-03-05T04:42:22.106Z,2.40
2019-03-05T04:45:05.676Z,2.60
2019-03-05T04:47:36.969Z,2.60
2019-03-05T04:50:40.595Z,2.43
2019-03-05T04:53:11.570Z,2.40
2019-03-05T04:55:42.688Z,2.10
2019-03-05T04:58:13.913Z,2.50
2019-03-05T05:00:44.585Z,2.90
2019-03-05T05:03:16.187Z,2.00
2019-03-05T05:05:46.810Z,2.17
2019-03-05T05:08:18.607Z,2.23
2019-03-05T05:10:49.279Z,2.17
2019-03-05T05:13:20.221Z,2.23
2019-03-05T05:15:51.268Z,2.10
2019-03-05T05:18:22.450Z,2.43
2019-03-05T05:20:53.378Z,2.50
2019-03-05T05:23:24.310Z,2.43
2019-03-05T05:25:56.362Z,1.63
2019-03-05T05:28:30.097Z,2.13
2019-03-05T05:31:03.744Z,2.10
2019-03-05T05:33:35.968Z,2.70
2019-03-05T05:36:06.698Z,2.60
2019-03-05T05:38:41.124Z,1.90
2019-03-05T05:41:11.811Z,2.27
2019-03-05T05:43:42.387Z,2.23
2019-03-05T05:46:14.322Z,2.43
2019-03-05T05:48:44.874Z,2.37
2019-03-05T05:51:18.179Z,1.90
2019-03-05T05:53:48.904Z,1.77
2019-03-05T05:56:19.944Z,2.07
2019-03-05T05:58:51.613Z,1.73
2019-03-05T06:01:23.388Z,2.10
2019-03-05T06:03:54.821Z,2.00
2019-03-05T06:06:30.450Z,2.43
2019-03-05T06:09:02.028Z,2.23
2019-03-05T06:11:33.606Z,1.90
2019-03-05T06:14:08.764Z,2.07
2019-03-05T06:16:39.680Z,2.00
2019-03-05T06:19:10.845Z,1.90
2019-03-05T06:21:43.858Z,2.07
2019-03-05T06:24:14.357Z,2.00
2019-03-05T06:26:45.406Z,1.97
2019-03-05T06:29:16.126Z,1.80
2019-03-05T06:31:47.289Z,2.53
2019-03-05T06:34:18.398Z,2.30
2019-03-05T06:36:54.368Z,2.33
2019-03-05T06:39:27.600Z,1.80
2019-03-05T06:41:58.705Z,2.03
2019-03-05T06:44:33.611Z,2.10
2019-03-05T06:47:04.168Z,1.90
2019-03-05T06:49:35.217Z,2.43
2019-03-05T06:52:05.745Z,2.10
2019-03-05T06:54:36.983Z,2.10
2019-03-05T06:57:08.333Z,1.87
2019-03-05T06:59:39.307Z,2.17
2019-03-05T07:02:13.257Z,2.10
2019-03-05T07:04:46.038Z,1.70
2019-03-05T07:07:17.102Z,1.90
2019-03-05T07:10:12.759Z,2.10
2019-03-05T07:13:08.673Z,2.07
2019-03-05T07:16:15.640Z,2.10
2019-03-05T07:19:01.901Z,1.80
2019-03-05T07:22:24.895Z,1.80
2019-03-05T07:24:58.344Z,2.17
2019-03-05T07:27:54.899Z,2.60
2019-03-05T07:30:28.657Z,2.20
2019-03-05T07:33:01.381Z,2.00
2019-03-05T07:35:34.779Z,2.07
2019-03-05T07:38:05.714Z,2.63
2019-03-05T07:40:37.449Z,2.33
2019-03-05T07:43:08.148Z,2.20
2019-03-05T07:45:40.862Z,1.90
2019-03-05T07:48:15.041Z,2.03
2019-03-05T07:50:50.233Z,2.47
2019-03-05T07:53:22.093Z,2.30
2019-03-05T07:55:54.659Z,2.60
2019-03-05T07:58:25.967Z,2.60
2019-03-05T08:00:57.169Z,2.00
2019-03-05T08:03:28.066Z,2.40
2019-03-05T08:05:59.287Z,2.37
2019-03-05T08:09:07.679Z,1.90
2019-03-05T08:11:39.960Z,2.20
2019-03-05T08:14:36.445Z,2.40
2019-03-05T08:17:10.666Z,2.10
2019-03-05T08:19:46.049Z,3.40
2019-03-05T08:22:18.337Z,3.77
2019-03-05T08:24:48.852Z,4.40
2019-03-05T08:27:21.701Z,3.70
2019-03-05T08:30:13.892Z,2.77
2019-03-05T08:32:36.707Z,6.10
2019-03-05T08:35:08.715Z,6.23
2019-03-05T08:37:51.455Z,9.20
2019-03-05T08:40:28.551Z,37.93
2019-03-05T08:43:03.768Z,60.17
2019-03-05T08:45:35.080Z,50.67
2019-03-05T08:48:06.955Z,43.30
2019-03-05T08:50:42.178Z,3.73
2019-03-05T08:53:14.877Z,8.77
2019-03-05T08:55:46.239Z,8.17
2019-03-05T08:58:17.451Z,3.00
2019-03-05T09:00:48.392Z,3.00
2019-03-05T09:03:19.098Z,12.97
2019-03-05T09:05:50.391Z,4.20
2019-03-05T09:08:25.019Z,9.97
2019-03-05T09:10:57.568Z,5.40
2019-03-05T09:13:32.655Z,2.77
2019-03-05T09:16:00.743Z,2.90
2019-03-05T09:18:31.604Z,2.37
2019-03-05T09:21:04.720Z,2.20
2019-03-05T09:23:35.375Z,2.80
2019-03-05T09:26:07.601Z,2.73
2019-03-05T09:28:38.385Z,2.83
2019-03-05T09:31:12.204Z,2.67
2019-03-05T09:33:44.153Z,2.40
2019-03-05T09:36:19.365Z,2.70
2019-03-05T09:38:54.136Z,2.37
2019-03-05T09:41:25.686Z,2.97
2019-03-05T09:43:58.091Z,2.60
2019-03-05T09:46:37.500Z,2.00
2019-03-05T09:49:12.553Z,2.00
2019-03-05T09:51:50.154Z,2.50
2019-03-05T09:54:22.682Z,1.90
2019-03-05T09:56:57.395Z,1.90
2019-03-05T09:59:38.060Z,3.10
2019-03-05T10:02:09.183Z,2.37
2019-03-05T10:04:44.307Z,2.13
2019-03-05T10:07:19.193Z,2.00
2019-03-05T10:09:48.856Z,2.20
2019-03-05T10:12:21.398Z,1.70
2019-03-05T10:14:55.282Z,2.00
2019-03-05T10:17:37.605Z,1.87
2019-03-05T10:20:01.572Z,1.83
2019-03-05T10:22:33.587Z,1.73
2019-03-05T10:25:06.246Z,2.20
2019-03-05T10:27:42.102Z,2.10
2019-03-05T10:30:24.769Z,1.83
2019-03-05T10:32:52.784Z,2.03
2019-03-05T10:35:26.774Z,2.03
2019-03-05T10:37:59.016Z,2.20
2019-03-05T10:40:36.717Z,2.40
2019-03-05T10:43:09.492Z,1.70
2019-03-05T10:45:43.701Z,1.80
2019-03-05T10:48:30.235Z,1.77
2019-03-05T10:51:01.347Z,1.50
2019-03-05T10:53:32.409Z,2.00
2019-03-05T10:56:03.012Z,1.60
2019-03-05T10:58:34.483Z,1.60
2019-03-05T11:01:11.967Z,1.70
2019-03-05T11:03:46.252Z,2.10
2019-03-05T11:06:19.952Z,2.17
2019-03-05T11:08:54.043Z,1.97
2019-03-05T11:11:24.944Z,2.33
2019-03-05T11:13:56.321Z,1.70
2019-03-05T11:16:31.126Z,2.10
2019-03-05T11:19:03.962Z,1.80
2019-03-05T11:21:35.342Z,2.20
2019-03-05T11:24:06.786Z,2.20
2019-03-05T11:26:37.701Z,2.20
2019-03-05T11:29:09.924Z,2.00
2019-03-05T11:31:41.661Z,2.20
2019-03-05T11:34:13.296Z,2.30
2019-03-05T11:36:44.434Z,1.97
2019-03-05T11:39:20.713Z,2.20
2019-03-05T11:41:56.304Z,2.70
2019-03-05T11:44:31.579Z,3.67
2019-03-05T11:47:04.612Z,23.20
2019-03-05T11:49:38.922Z,4.80
2019-03-05T11:52:12.811Z,3.17
2019-03-05T11:54:43.546Z,4.30
2019-03-05T11:57:16.979Z,6.20
2019-03-05T11:59:49.876Z,11.47
2019-03-05T12:02:22.206Z,5.13
2019-03-05T12:04:55.559Z,7.87
2019-03-05T12:07:29.769Z,10.40
2019-03-05T12:10:01.954Z,4.50
2019-03-05T12:12:33.084Z,11.43
2019-03-05T12:15:07.745Z,8.07
2019-03-05T12:17:38.740Z,4.50
2019-03-05T12:20:20.411Z,13.00
2019-03-05T12:23:02.607Z,13.87
2019-03-05T12:25:36.090Z,18.57
2019-03-05T12:28:10.716Z,5.37
2019-03-05T12:30:41.133Z,10.83
2019-03-05T12:33:14.639Z,9.33
2019-03-05T12:35:46.193Z,5.93
2019-03-05T12:38:20.771Z,2.83
2019-03-05T12:40:51.636Z,3.87
2019-03-05T12:43:22.617Z,3.23
2019-03-05T12:45:53.833Z,6.67
2019-03-05T12:48:26.569Z,11.70
2019-03-05T12:51:03.300Z,7.40
2019-03-05T12:53:34.740Z,5.47
2019-03-05T12:56:06.146Z,4.07
2019-03-05T12:58:40.072Z,4.77
2019-03-05T13:01:12.165Z,3.60
2019-03-05T13:03:42.983Z,4.13
2019-03-05T13:06:16.759Z,2.37
2019-03-05T13:08:48.772Z,11.43
2019-03-05T13:11:19.374Z,15.17
2019-03-05T13:14:05.391Z,3.63
2019-03-05T13:16:28.346Z,19.57
2019-03-05T13:19:00.461Z,16.50
2019-03-05T13:21:31.970Z,10.03
2019-03-05T13:24:02.985Z,15.70
2019-03-05T13:26:33.634Z,22.03
2019-03-05T13:29:04.194Z,13.07
2019-03-05T13:31:38.660Z,12.03
2019-03-05T13:34:08.285Z,6.00
2019-03-05T13:36:38.932Z,2.93
2019-03-05T13:39:11.355Z,2.20
2019-03-05T13:41:44.373Z,3.00
2019-03-05T13:44:34.102Z,7.20
2019-03-05T13:47:06.542Z,3.47
2019-03-05T13:50:09.330Z,2.50
2019-03-05T13:53:31.894Z,3.53
2019-03-05T13:56:28.320Z,2.43
2019-03-05T13:59:34.241Z,2.20
2019-03-05T14:02:07.668Z,2.30
2019-03-05T14:04:59.416Z,2.40
2019-03-05T14:08:12.588Z,2.90
2019-03-05T14:10:43.852Z,2.10
2019-03-05T14:13:14.801Z,1.77
2019-03-05T14:15:46.182Z,2.10
2019-03-05T14:18:19.993Z,1.90
2019-03-05T14:20:51.486Z,1.53
2019-03-05T14:23:23.573Z,2.27
2019-03-05T14:25:58.868Z,1.87
2019-03-05T14:28:31.935Z,1.80
2019-03-05T14:31:02.308Z,1.80
2019-03-05T14:33:36.234Z,1.90
2019-03-05T14:36:07.054Z,1.80
2019-03-05T14:38:38.539Z,1.80
2019-03-05T14:41:10.217Z,1.97
2019-03-05T14:43:41.310Z,1.80
2019-03-05T14:46:14.462Z,1.90
2019-03-05T14:48:45.621Z,1.80
2019-03-05T14:51:18.929Z,1.80
2019-03-05T14:53:50.138Z,1.90
2019-03-05T14:56:23.769Z,2.07
2019-03-05T14:58:54.788Z,1.43
2019-03-05T15:01:25.597Z,1.97
2019-03-05T15:03:57.795Z,2.23
2019-03-05T15:06:28.714Z,15.17
2019-03-05T15:08:59.177Z,6.47
2019-03-05T15:11:30.943Z,2.10
2019-03-05T15:14:01.779Z,2.00
2019-03-05T15:16:33.479Z,2.10
2019-03-05T15:19:04.779Z,2.40
2019-03-05T15:21:36.600Z,1.87
2019-03-05T15:24:07.079Z,2.10
2019-03-05T15:26:38.170Z,2.47
2019-03-05T15:29:08.988Z,2.10
2019-03-05T15:31:40.411Z,2.20
2019-03-05T15:34:11.869Z,2.10
2019-03-05T15:36:42.349Z,2.37
2019-03-05T15:39:12.905Z,1.87
2019-03-05T15:41:45.996Z,2.10
2019-03-05T15:44:17.746Z,1.63
2019-03-05T15:46:48.790Z,1.90
2019-03-05T15:49:19.340Z,1.73
2019-03-05T15:51:51.571Z,2.10
2019-03-05T15:54:24.129Z,2.27
2019-03-05T15:56:54.922Z,2.10
2019-03-05T16:02:32.538Z,3.30
2019-03-05T16:05:44.906Z,1.90
2019-03-05T16:07:35.571Z,2.80
2019-03-05T16:10:06.214Z,2.30
2019-03-05T16:12:37.953Z,2.40
2019-03-05T16:15:10.379Z,2.50
2019-03-05T16:17:42.472Z,3.07
2019-03-05T16:20:14.303Z,2.63
2019-03-05T16:22:45.222Z,2.17
2019-03-05T16:25:16.553Z,2.70
2019-03-05T16:27:47.362Z,3.40
2019-03-05T16:30:38.149Z,2.40
2019-03-05T16:33:38.566Z,2.40
2019-03-05T16:36:29.255Z,3.30
2019-03-05T16:39:21.454Z,2.77
2019-03-05T16:42:16.900Z,2.63
2019-03-05T16:45:06.313Z,4.50
2019-03-05T16:48:03.824Z,4.00
2019-03-05T16:51:08.294Z,2.73
2019-03-05T16:53:52.844Z,3.23
2019-03-05T16:57:01.197Z,2.47
2019-03-05T16:59:49.141Z,4.27
2019-03-05T17:02:37.587Z,4.87
2019-03-05T17:05:33.299Z,5.00
2019-03-05T17:08:11.197Z,5.37
2019-03-05T17:10:51.230Z,4.83
2019-03-05T17:13:22.350Z,7.90
2019-03-05T17:15:53.367Z,3.97
2019-03-05T17:18:24.172Z,22.77
2019-03-05T17:20:55.857Z,6.77
2019-03-05T17:23:27.392Z,3.20
2019-03-05T17:25:58.903Z,7.10
2019-03-05T17:28:29.785Z,6.07
2019-03-05T17:31:00.439Z,18.10
2019-03-05T17:33:31.054Z,22.97
2019-03-05T17:36:01.639Z,14.13
2019-03-05T17:38:33.335Z,8.27
2019-03-05T17:41:04.861Z,11.37
2019-03-05T17:43:35.521Z,11.63
2019-03-05T17:46:06.053Z,7.60
2019-03-05T17:48:37.555Z,5.67
2019-03-05T17:51:09.365Z,6.67
2019-03-05T17:53:40.268Z,5.27
2019-03-05T17:56:11.311Z,4.60
2019-03-05T17:58:42.095Z,5.13
2019-03-05T18:01:13.083Z,4.57
2019-03-05T18:03:45.301Z,5.50
2019-03-05T18:06:19.239Z,4.63
2019-03-05T18:08:50.599Z,4.80
2019-03-05T18:11:21.928Z,5.10
2019-03-05T18:13:52.955Z,3.17
2019-03-05T18:16:24.424Z,5.53
2019-03-05T18:18:58.144Z,3.80
2019-03-05T18:21:29.391Z,5.80
2019-03-05T18:24:00.502Z,5.43
2019-03-05T18:26:31.404Z,5.67
2019-03-05T18:29:02.124Z,5.57
2019-03-05T18:31:33.145Z,6.30
2019-03-05T18:34:04.064Z,6.73
2019-03-05T18:36:35.948Z,6.40
2019-03-05T18:39:07.224Z,7.07
2019-03-05T18:41:38.140Z,7.73
2019-03-05T18:44:10.032Z,7.40
2019-03-05T18:46:41.115Z,7.30
2019-03-05T18:49:13.000Z,7.50
2019-03-05T18:51:43.960Z,6.70
2019-03-05T18:54:14.873Z,7.30
2019-03-05T18:56:46.406Z,8.07
2019-03-05T18:59:17.388Z,8.23
2019-03-05T19:01:51.486Z,7.63
2019-03-05T19:04:23.281Z,8.97
2019-03-05T19:06:54.436Z,8.87
2019-03-05T19:09:25.017Z,10.63
2019-03-05T19:11:56.998Z,9.77
2019-03-05T19:14:28.912Z,8.10
2019-03-05T19:16:59.908Z,7.97
2019-03-05T19:19:31.315Z,6.40
2019-03-05T19:22:02.359Z,6.47
2019-03-05T19:24:33.092Z,9.43
2019-03-05T19:27:05.098Z,7.30
2019-03-05T19:29:40.370Z,7.70
2019-03-05T19:32:11.655Z,6.30
2019-03-05T19:34:45.949Z,6.83
2019-03-05T19:37:16.642Z,5.40
2019-03-05T19:39:47.441Z,5.60
2019-03-05T19:42:18.743Z,5.70
2019-03-05T19:44:50.152Z,5.93
2019-03-05T19:47:21.458Z,6.30
2019-03-05T19:49:54.468Z,5.70
2019-03-05T19:52:25.584Z,6.07
2019-03-05T19:54:56.311Z,6.50
2019-03-05T19:57:27.366Z,6.23
2019-03-05T20:00:00.466Z,6.00
2019-03-05T20:02:31.445Z,6.00
2019-03-05T20:05:03.048Z,5.33
2019-03-05T20:07:35.326Z,5.37
2019-03-05T20:10:07.515Z,6.33
2019-03-05T20:12:39.436Z,5.50
2019-03-05T20:15:12.912Z,6.10
2019-03-05T20:17:44.801Z,5.80
2019-03-05T20:20:16.348Z,5.33
2019-03-05T20:22:50.671Z,6.10
2019-03-05T20:25:23.683Z,7.07
2019-03-05T20:28:16.484Z,6.53
2019-03-05T20:30:48.230Z,5.47
2019-03-05T20:33:19.731Z,5.50
2019-03-05T20:36:15.775Z,5.63
2019-03-05T20:38:48.355Z,5.17
2019-03-05T20:41:20.410Z,6.53
2019-03-05T20:43:54.080Z,4.90
2019-03-05T20:46:30.345Z,5.23
2019-03-05T20:49:01.348Z,6.27
2019-03-05T20:51:34.194Z,4.37
2019-03-05T20:54:04.916Z,5.20
2019-03-05T20:56:35.834Z,5.50
2019-03-05T20:59:07.598Z,5.67
2019-03-05T21:01:40.074Z,5.07
2019-03-05T21:04:15.046Z,5.30
2019-03-05T21:06:46.079Z,5.30
2019-03-05T21:09:25.728Z,5.13
2019-03-05T21:11:56.809Z,5.00
2019-03-05T21:14:28.360Z,4.80
2019-03-05T21:16:59.543Z,5.60
2019-03-05T21:19:30.581Z,4.83
2019-03-05T21:22:08.359Z,5.33
2019-03-05T21:24:39.337Z,4.60
2019-03-05T21:27:11.789Z,5.57
2019-03-05T21:29:43.003Z,5.43
2019-03-05T21:32:14.413Z,5.07
2019-03-05T21:34:47.056Z,5.07
2019-03-05T21:37:18.406Z,5.50
2019-03-05T21:39:50.664Z,5.70
2019-03-05T21:42:23.269Z,5.03
2019-03-05T21:44:54.712Z,5.40
2019-03-05T21:47:26.006Z,7.07
2019-03-05T21:49:57.073Z,4.90
2019-03-05T21:52:27.619Z,4.80
2019-03-05T21:54:58.480Z,4.33
2019-03-05T21:57:28.879Z,4.70
2019-03-05T21:59:59.954Z,4.60
2019-03-05T22:02:30.482Z,3.97
2019-03-05T22:05:03.868Z,4.73
2019-03-05T22:07:35.910Z,4.40
2019-03-05T22:10:09.068Z,4.90
2019-03-05T22:12:40.731Z,4.53
2019-03-05T22:15:15.472Z,4.43
2019-03-05T22:17:47.127Z,4.10
2019-03-05T22:20:22.396Z,4.60
2019-03-05T22:22:53.571Z,4.87
2019-03-05T22:25:24.447Z,4.60
2019-03-05T22:27:55.328Z,5.10
2019-03-05T22:30:29.329Z,4.27
2019-03-05T22:33:01.604Z,4.73
2019-03-05T22:35:35.985Z,4.77
2019-03-05T22:38:07.568Z,4.47
2019-03-05T22:40:39.433Z,3.77
2019-03-05T22:43:10.330Z,4.93
2019-03-05T22:45:40.640Z,4.60
2019-03-05T22:48:11.488Z,4.70
2019-03-05T22:51:19.213Z,4.20
2019-03-05T22:54:26.858Z,4.97
2019-03-05T22:57:10.286Z,4.83
2019-03-05T22:59:41.017Z,4.97
2019-03-05T23:02:11.901Z,4.57
2019-03-05T23:04:46.517Z,5.50
2019-03-05T23:07:18.126Z,5.47
2019-03-05T23:09:49.154Z,5.40
2019-03-05T23:12:20.741Z,5.50
2019-03-05T23:14:52.059Z,5.70
2019-03-05T23:17:24.769Z,6.03
2019-03-05T23:19:56.162Z,6.57
2019-03-05T23:22:28.100Z,7.00
2019-03-05T23:24:59.127Z,6.13
2019-03-05T23:27:33.382Z,7.07
2019-03-05T23:30:06.880Z,6.87
2019-03-05T23:32:37.992Z,6.47
2019-03-05T23:35:10.894Z,6.13
2019-03-05T23:37:41.762Z,7.10
2019-03-05T23:40:14.158Z,6.50
2019-03-05T23:42:46.223Z,6.87
2019-03-05T23:45:17.578Z,6.73
2019-03-05T23:47:48.437Z,7.67
2019-03-05T23:50:19.035Z,7.53
2019-03-05T23:52:50.046Z,7.50
2019-03-05T23:55:21.084Z,7.67
2019-03-05T23:57:52.673Z,8.43
